Airfield :
LOGIN :

Register | Disclaimer

   EN    FR    IT 

 










Legend :    VFR   Marginal VFR   IFR   Intensive IFR   Very Intensive IFR
Visi :
Ceiling :
>= 8 km
>= 3000ft
5 to 8 km
1000 to 3000 ft
1500m to 5 km
500 to 1000 ft
800 to 1500m
200 to 500 ft
< 800m
< 200 ft
Symbols :   Thunderstorms  Fog  Heavy snow  Heavy precipitations  Wind > 20 kt
SIGMETs :     Misc.  Thunderstorms  Icing  Turbulence  Mountain Waves  Volcanic Ashes







- Airport Elevation : 353 ft
- IATA code : LIN


LIML - Milano Linate

CURRENT METAR :
  • 231750Z 03007KT 9999 BKN050 13/12 Q1017 NOSIG

EXPIRED METARs :
  • 231720Z 36002KT 9999 BKN050 13/12 Q1017 NOSIG
  • 231650Z VRB02KT 6000 BKN050 14/12 Q1017 NOSIG
  • 231620Z 09006KT 360V110 9999 BKN060 14/12 Q1017 NOSIG
  • 231550Z 10007KT 010V130 4000 BR BKN060 14/13 Q1017 NOSIG
  • 231520Z 10008KT 3500 -RA SCT030 BKN070 14/13 Q1016 NOSIG

TAF TAF LIML
Valid from the 23 at 18:00 until the 24 at 18:00 UTC


231700Z 2318/2418 10007KT 4000 RA SCT015 BKN030
TEMPO 2318/2324 2500 SHRA
PROB40
TEMPO 2318/2322 2000 TSRA
BECMG 2408/2410 7000 NSW
No reported NOTAMs for that airfield.
1 SIGMET reported for the Milano FIR (LIMM) :
 
Embedded thunderstorms
LIMM SIGMET 1 VALID 231735/231935 LIMM- LIMM MILANO FIR EMBD TS OBS WI N4555 E00901 - N4457 E01030 - N4518 E01124 - N4558 E01003 - N4555 E00901 TOP FL300 MOV ENE NC=



MET'MAP, your aeronautical weather chart ! - Copyright ORBIFLY December 2007 - Disclaimer

ORBIFLY MET'MAP TEAM :

Programming & Development : Alexandra Zaïnal
Concept & Development : Baudouin d'Aumeries
Co-Development & Prog : Marc-Olivier Méhu
Technical & hardware support : Manuel Goepfert

Contact : metmap@orbifly.com




SOURCES & CREDITS :

   NOAA